Main page
METAR-TAF:

METAR-TAF

Airports :

Keetmanshoop Airport

Keetmanshoop, Namibia

latitude: 26-32S, longitude: 018-07E, elevation: 1067 m

Current weather observation

The report was made 2 hours and 57 minutes ago, at 09:00 UTC
Wind 14 kt from the West/Southwest
Temperature 15°C
Humidity 44%
Pressure 1027 hPa
Visibility 10 km or more
Few clouds at a height of 3000 ft

METAR: FYKT 190900Z 25014KT 9999 FEW030 15/03 Q1027

Time: 13:57 (11:57 UTC)

Forecast

The report was made 7 hours and 57 minutes ago, at 04:00 UTC
Forecast valid from 19 at 06 UTC to 20 at 06 UTC
Wind 10 kt from the West/Southwest
Visibility 10 km or more
no clouds below 1500 m and no cumulonimbus
Becoming
from 19 at 19 UTC to 19 at 21 UTC
Wind 7 kt from the South/Southeast
Becoming
from 20 at 00 UTC to 20 at 02 UTC
Wind 10 kt from the East

TAF: FYKT 190400Z 1906/2006 24010KT CAVOK BECMG 1919/1921 15007KT BECMG 2000/2002 08010KT

Weather observations and forecasts of more than 4000 airports (METAR and TAF reports).

The available stations are represented by yellow and red dots on the map.

Hover mouse over dot to see the name of the station.

Then click to see weather observations and forecasts.

To change the map : click on the green buttons with a black cross to zoom in, on the green button with a dash to zoom out, or on the green arrows for adjacent maps.


METAR-TAF: